• Join FlightAware (Why Join?)
  • Login
  • US Flag 
 
02:05AM EST


 

Airport Tracker/Info


-or-


 

Live Flight TrackerFlight Track Log ✈ EJA844 ✈ 22-Apr-2012 ✈ KPDK - KSSI

Flight Track Log - Related Links

Times and Time Zones

All times are in EDT time to prevent confusion due to time zone crossing. See the EJA844 flight status page for this flight to view local times or setup timezone preferences in your user account.

Time Position Orientation Groundspeed Altitude Reporting Facility
EDT Latitude Longitude Course Direction KTS MPH feet Rate Location/Type
06:36PM 33.9167 -84.3000 292° West 164 189 3,500  Level Atlanta TRACON
06:37PM 33.9333 -84.3500 192° South 204 235 6,000 1,200 Climbing Atlanta TRACON
06:38PM 33.8667 -84.3667 192° South 242 278 6,000  Level Atlanta TRACON
06:39PM 33.8000 -84.3833 180° South 245 282 6,000  Level Atlanta TRACON
06:40PM 33.7333 -84.3833 192° South 237 273 6,000  Level Atlanta TRACON
06:41PM 33.6667 -84.4000 180° South 229 264 6,000  Level Atlanta TRACON
06:42PM 33.6167 -84.4000 186° South 258 297 6,000 540 Level Atlanta TRACON
06:42PM 33.5578 -84.4078 185° South 243 280 7,000 2,220 Climbing Atlanta Center
06:43PM 33.4847 -84.4150 188° South 297 342 10,000 3,000 Climbing Atlanta Center
06:44PM 33.3969 -84.4294 181° South 302 348 13,000 3,000 Climbing Atlanta Center
06:45PM 33.3031 -84.4314 145° Southeast 326 375 16,000 2,640 Climbing Atlanta Center
06:46PM 33.2156 -84.3592 131° Southeast 326 375 18,300 2,100 Climbing Atlanta Center
06:47PM 33.1428 -84.2597 131° Southeast 350 403 20,300 1,320 Climbing Atlanta Center
06:48PM 33.0678 -84.1578 129° Southeast 376 433 21,000 300 Climbing Atlanta Center
06:49PM 32.9969 -84.0536 134° Southeast 406 467 21,000  Level Atlanta Center
06:50PM 32.9156 -83.9522 132° Southeast 426 490 21,000  Level Atlanta Center
06:51PM 32.8339 -83.8436 131° Southeast 438 504 21,000  Level Atlanta Center
06:52PM 32.7544 -83.7350 132° Southeast 438 504 21,000  Level Atlanta Center
06:53PM 32.6728 -83.6267 128° Southeast 438 504 21,000  Level Atlanta Center
06:54PM 32.5992 -83.5136 128° Southeast 438 504 21,000  Level Atlanta Center
06:56PM 32.4644 -83.3086 129° Southeast 436 502 21,000  Level Jacksonville Center
06:57PM 32.3894 -83.2000 128° Southeast 436 502 21,000  Level Jacksonville Center
06:58PM 32.3167 -83.0892 127° Southeast 436 502 21,000  Level Jacksonville Center
06:59PM 32.2458 -82.9786 130° Southeast 431 496 21,000  Level Jacksonville Center
07:00PM 32.1686 -82.8706 128° Southeast 431 496 21,000 -420 Level Jacksonville Center
07:01PM 32.0956 -82.7603 128° Southeast 426 490 20,200 -1,200 Descending Jacksonville Center
07:02PM 32.0264 -82.6572 129° Southeast 421 484 18,600 -1,740 Descending Jacksonville Center
07:03PM 31.9531 -82.5522 128° Southeast 421 484 16,800 -1,680 Descending Jacksonville Center
07:04PM 31.8839 -82.4497 128° Southeast 416 479 15,300 -1,500 Descending Jacksonville Center
07:05PM 31.8208 -82.3547 134° Southeast 400 460 13,800 -1,500 Descending Jacksonville Center
07:06PM 31.7600 -82.2817 137° Southeast 345 397 12,400 -1,560 Descending Jacksonville Center
07:07PM 31.6867 -82.2017 144° Southeast 329 379 10,700 -1,560 Descending Jacksonville Center
07:08PM 31.6214 -82.1461 139° Southeast 322 371 9,300 -1,560 Descending Jacksonville Center
07:09PM 31.5500 -82.0733 137° Southeast 307 353 7,600 -1,560 Descending Jacksonville Center
07:10PM 31.4911 -82.0081 123° Southeast 295 339 6,200 -840 Descending Jacksonville Center
07:11PM 31.4489 -81.9306 124° Southeast 284 327 6,000 -120 Descending Jacksonville Center
07:12PM 31.4064 -81.8556 123° Southeast 292 336 6,000 -300 Level Jacksonville Center
07:13PM 31.3642 -81.7783 122° Southeast 292 336 5,500 -1,140 Descending Jacksonville Center
07:14PM 31.3172 -81.6914 123° Southeast 292 336 3,800 -1,560 Descending Jacksonville Center
07:15PM 31.2728 -81.6117 122° Southeast 287 330 2,400 -1,080 Descending Jacksonville Center
07:16PM 31.2386 -81.5489 122° Southeast 264 304 1,700 -720 Descending Jacksonville Center